Time;durP1;ratioP1;P1;durP2;ratioP2;P2;SDS_P1;SDS_P2;PMS_P1;PMS_P2;Temp;Humidity;BMP_temperature;BMP_pressure;BME280_temperature;BME280_humidity;BME280_pressure;Samples;Min_cycle;Max_cycle;Signal;HPM_P1;HPM_P2
2021/10/01 00:00:26;;;;;;;4.80;1.55;;;;;;;2.21;100.00;93776.31;2112455;28;20361;-75
2021/10/01 00:01:27;;;;;;;1.83;1.30;;;;;;;2.07;100.00;93773.41;2115730;28;20019;-77
2021/10/01 00:02:28;;;;;;;4.55;1.50;;;;;;;2.12;100.00;93777.63;2107043;28;20066;-77
2021/10/01 00:03:29;;;;;;;3.15;1.45;;;;;;;2.09;100.00;93776.44;2111003;28;20414;-76
2021/10/01 00:04:31;;;;;;;3.80;1.63;;;;;;;2.11;100.00;93770.81;2120349;27;20034;-75
2021/10/01 00:05:32;;;;;;;2.47;1.30;;;;;;;2.07;100.00;93770.75;2120001;27;20157;-75
2021/10/01 00:06:33;;;;;;;4.03;1.48;;;;;;;1.99;100.00;93771.72;2107289;28;20476;-77
2021/10/01 00:07:34;;;;;;;3.45;1.30;;;;;;;2.12;100.00;93769.72;2115345;28;20011;-78
2021/10/01 00:08:35;;;;;;;2.97;1.52;;;;;;;2.13;100.00;93772.00;2116396;28;20476;-78
2021/10/01 00:09:39;;;;;;;3.70;1.50;;;;;;;2.17;100.00;93764.16;2116435;28;20027;-76
2021/10/01 00:10:40;;;;;;;3.55;1.38;;;;;;;2.04;100.00;93775.94;2115709;28;20023;-78
2021/10/01 00:11:46;;;;;;;2.03;1.25;;;;;;;2.05;100.00;93769.56;2107441;28;20032;-75
2021/10/01 00:12:47;;;;;;;2.30;1.30;;;;;;;2.06;100.00;93771.84;2107966;28;20443;-76
2021/10/01 00:13:48;;;;;;;3.30;1.40;;;;;;;1.91;100.00;93768.16;2115586;28;20023;-77
2021/10/01 00:14:49;;;;;;;3.05;1.50;;;;;;;1.94;100.00;93764.84;2116402;28;20068;-76
2021/10/01 00:15:50;;;;;;;4.72;1.63;;;;;;;1.91;100.00;93773.44;2116385;28;20016;-77
2021/10/01 00:16:54;;;;;;;3.20;1.48;;;;;;;1.95;100.00;93769.00;2115461;28;20027;-76
2021/10/01 00:17:55;;;;;;;2.40;1.30;;;;;;;2.03;100.00;93767.28;2115553;28;20450;-76
2021/10/01 00:18:56;;;;;;;3.63;1.48;;;;;;;2.13;100.00;93763.34;2116190;28;20100;-77
2021/10/01 00:19:57;;;;;;;2.70;1.25;;;;;;;2.16;100.00;93765.28;2123146;27;20104;-76
2021/10/01 00:20:58;;;;;;;1.83;1.48;;;;;;;2.03;100.00;93769.16;2111876;27;20031;-76
2021/10/01 00:21:59;;;;;;;1.67;1.15;;;;;;;1.98;100.00;93762.28;2107702;28;20073;-76
2021/10/01 00:23:00;;;;;;;2.70;1.10;;;;;;;2.09;100.00;93765.13;2107650;28;20149;-78
2021/10/01 00:24:02;;;;;;;1.40;1.20;;;;;;;2.13;100.00;93763.34;2107711;28;20032;-77
2021/10/01 00:25:03;;;;;;;2.08;1.33;;;;;;;2.08;100.00;93774.16;2124592;27;20158;-77
2021/10/01 00:26:04;;;;;;;4.80;1.60;;;;;;;2.03;100.00;93769.91;2124589;27;20023;-75
2021/10/01 00:27:09;;;;;;;3.47;1.45;;;;;;;1.94;100.00;93767.47;2124692;27;20063;-76
2021/10/01 00:28:10;;;;;;;2.38;1.27;;;;;;;1.90;100.00;93766.63;2124750;27;20413;-78
2021/10/01 00:29:12;;;;;;;3.95;1.50;;;;;;;1.93;100.00;93763.31;2124691;27;20027;-77
2021/10/01 00:30:13;;;;;;;2.33;1.40;;;;;;;1.93;100.00;93759.91;2124335;27;20023;-78
2021/10/01 00:31:14;;;;;;;1.38;1.10;;;;;;;1.84;100.00;93767.22;2123687;27;20023;-76
2021/10/01 00:32:15;;;;;;;2.95;1.23;;;;;;;1.77;100.00;93760.72;2113753;28;20023;-76
2021/10/01 00:33:16;;;;;;;1.63;1.30;;;;;;;1.75;100.00;93764.78;2102408;28;20095;-76
2021/10/01 00:34:17;;;;;;;2.88;1.42;;;;;;;1.83;100.00;93763.84;2107218;28;20090;-76
2021/10/01 00:35:19;;;;;;;2.03;1.30;;;;;;;1.80;100.00;93758.47;2116099;28;20027;-78
2021/10/01 00:36:19;;;;;;;3.40;1.33;;;;;;;1.79;100.00;93759.59;2116223;28;20030;-76
2021/10/01 00:37:20;;;;;;;1.85;1.35;;;;;;;1.71;100.00;93759.47;2116058;28;20019;-77
2021/10/01 00:38:21;;;;;;;1.70;1.35;;;;;;;1.62;100.00;93755.47;2116014;28;20471;-77
2021/10/01 00:39:22;;;;;;;1.33;1.20;;;;;;;1.75;100.00;93748.97;2115996;28;20015;-76
2021/10/01 00:40:23;;;;;;;1.85;1.20;;;;;;;1.59;100.00;93756.16;2115954;28;20023;-76
2021/10/01 00:41:26;;;;;;;2.22;1.42;;;;;;;1.74;100.00;93750.84;2115998;28;20115;-78
2021/10/01 00:42:27;;;;;;;3.33;1.13;;;;;;;1.68;100.00;93756.75;2116001;28;20031;-77
2021/10/01 00:43:28;;;;;;;1.30;1.20;;;;;;;1.70;100.00;93757.16;2115977;28;20544;-77
2021/10/01 00:44:29;;;;;;;2.33;1.23;;;;;;;1.60;100.00;93750.53;2115233;28;20112;-78
2021/10/01 00:45:30;;;;;;;1.65;1.40;;;;;;;1.56;100.00;93747.06;2107819;28;20548;-78
2021/10/01 00:46:31;;;;;;;1.23;1.13;;;;;;;1.55;100.00;93755.31;2123375;27;20027;-77
2021/10/01 00:47:32;;;;;;;1.70;1.10;;;;;;;1.64;100.00;93754.03;2120475;27;20399;-77
2021/10/01 00:48:33;;;;;;;1.20;1.10;;;;;;;1.66;100.00;93757.06;2119310;27;20023;-78
2021/10/01 00:49:34;;;;;;;2.45;1.38;;;;;;;1.69;100.00;93745.09;2111065;28;20138;-75
2021/10/01 00:50:35;;;;;;;1.35;1.23;;;;;;;1.65;100.00;93741.63;2106286;28;20023;-76
2021/10/01 00:51:39;;;;;;;1.80;1.13;;;;;;;1.69;100.00;93745.84;2111259;28;20022;-77
2021/10/01 00:52:40;;;;;;;2.80;1.60;;;;;;;1.78;100.00;93737.75;2123893;27;20038;-75
2021/10/01 00:53:43;;;;;;;1.50;1.23;;;;;;;1.72;100.00;93744.41;2123705;27;20506;-77
2021/10/01 00:54:44;;;;;;;2.35;1.15;;;;;;;1.70;100.00;93741.34;2123758;27;20015;-77
2021/10/01 00:55:45;;;;;;;2.90;1.35;;;;;;;1.75;100.00;93735.78;2115262;28;20043;-77
2021/10/01 00:56:47;;;;;;;2.20;1.23;;;;;;;1.68;100.00;93740.94;2115199;27;20110;-75
2021/10/01 00:57:48;;;;;;;3.05;1.30;;;;;;;1.66;100.00;93738.63;2115541;27;20132;-76
2021/10/01 00:58:49;;;;;;;2.40;1.33;;;;;;;1.68;100.00;93744.31;2123773;27;20027;-75
2021/10/01 00:59:50;;;;;;;1.98;1.00;;;;;;;1.80;100.00;93737.41;2124400;27;20030;-77
2021/10/01 01:01:58;;;;;;;1.60;1.35;;;;;;;1.69;100.00;93742.44;2115992;27;20023;-75
2021/10/01 01:03:03;;;;;;;2.22;1.23;;;;;;;1.64;100.00;93735.59;2107492;28;20107;-77
2021/10/01 01:04:08;;;;;;;3.72;2.00;;;;;;;1.72;100.00;93739.13;2107303;28;20047;-77
2021/10/01 01:05:09;;;;;;;3.03;1.30;;;;;;;1.71;100.00;93732.31;2107830;27;20028;-78
2021/10/01 01:06:38;;;;;;;1.55;1.45;;;;;;;1.70;100.00;93730.81;2123265;27;20027;-75
2021/10/01 01:07:50;;;;;;;3.78;1.40;;;;;;;1.66;100.00;93737.88;2116001;27;20043;-76
2021/10/01 01:08:59;;;;;;;2.90;1.30;;;;;;;1.74;100.00;93729.75;2123855;27;20035;-73
2021/10/01 01:10:38;;;;;;;1.95;1.30;;;;;;;1.77;100.00;93736.22;2115659;27;20485;-73
2021/10/01 01:12:06;;;;;;;1.85;1.30;;;;;;;1.68;100.00;93733.78;2107213;28;20032;-76
2021/10/01 01:13:16;;;;;;;3.63;1.30;;;;;;;1.59;100.00;93727.94;2081270;28;20041;-77
2021/10/01 01:14:32;;;;;;;1.58;1.40;;;;;;;1.75;100.00;93730.53;2099617;28;20025;-76
2021/10/01 01:15:37;;;;;;;2.63;1.50;;;;;;;1.80;100.00;93735.56;2106631;28;20024;-76
2021/10/01 01:16:42;;;;;;;1.50;1.40;;;;;;;1.84;100.00;93725.81;2108256;27;20016;-75
2021/10/01 01:17:50;;;;;;;5.47;1.92;;;;;;;1.82;100.00;93728.06;2118187;27;20457;-76
2021/10/01 01:18:55;;;;;;;2.20;1.30;;;;;;;1.76;100.00;93727.56;2119826;27;20370;-77
2021/10/01 01:20:05;;;;;;;2.03;1.17;;;;;;;1.71;100.00;93716.50;2122845;27;20119;-78
2021/10/01 01:21:14;;;;;;;1.52;1.27;;;;;;;1.70;100.00;93725.53;2107304;28;20030;-77
2021/10/01 01:22:35;;;;;;;1.17;1.15;;;;;;;1.63;100.00;93720.88;2122471;27;20709;-77
2021/10/01 01:24:09;;;;;;;1.33;1.23;;;;;;;1.62;100.00;93713.31;2120006;27;20019;-77
2021/10/01 01:25:36;;;;;;;1.92;1.30;;;;;;;1.66;100.00;93711.50;2123405;27;20070;-77
2021/10/01 01:27:10;;;;;;;1.90;1.10;;;;;;;1.59;100.00;93703.47;2114979;28;20395;-78
2021/10/01 01:28:34;;;;;;;1.48;0.90;;;;;;;1.51;100.00;93707.81;2115525;28;20042;-78
2021/10/01 01:29:52;;;;;;;1.70;1.23;;;;;;;1.56;100.00;93704.91;2115736;28;20394;-77
2021/10/01 01:30:59;;;;;;;1.35;1.23;;;;;;;1.64;100.00;93703.19;2107031;28;20074;-77
2021/10/01 01:32:21;;;;;;;1.23;1.13;;;;;;;1.61;100.00;93695.97;2107277;28;20031;-77
2021/10/01 01:33:24;;;;;;;1.30;1.15;;;;;;;1.57;100.00;93703.81;2106549;28;20028;-77
2021/10/01 01:34:39;;;;;;;1.98;1.38;;;;;;;1.51;100.00;93695.41;2112045;27;20027;-76
2021/10/01 01:35:43;;;;;;;4.35;1.55;;;;;;;1.58;100.00;93694.03;2119075;27;20019;-79
2021/10/01 01:36:45;;;;;;;1.52;1.23;;;;;;;1.58;100.00;93691.38;2120405;27;20065;-77
2021/10/01 01:37:56;;;;;;;1.55;1.27;;;;;;;1.51;100.00;93692.00;2117590;27;20097;-76
2021/10/01 01:38:59;;;;;;;1.33;1.20;;;;;;;1.54;100.00;93693.19;2122731;27;20019;-77
2021/10/01 01:40:03;;;;;;;1.50;1.30;;;;;;;1.50;100.00;93690.50;2116297;27;20032;-75
2021/10/01 01:41:06;;;;;;;1.48;1.20;;;;;;;1.49;100.00;93692.38;2122995;27;20019;-75
2021/10/01 01:42:08;;;;;;;1.40;1.30;;;;;;;1.61;100.00;93685.44;2107250;28;20036;-76
2021/10/01 01:43:09;;;;;;;1.52;1.20;;;;;;;1.59;100.00;93690.31;2110094;28;20110;-77
2021/10/01 01:44:11;;;;;;;2.85;1.35;;;;;;;1.59;100.00;93683.16;2098445;28;20029;-79
2021/10/01 01:45:17;;;;;;;1.23;1.13;;;;;;;1.60;100.00;93683.91;2114563;28;20024;-77
2021/10/01 01:46:20;;;;;;;1.02;0.98;;;;;;;1.55;100.00;93684.19;2117138;27;20027;-76
2021/10/01 01:47:21;;;;;;;2.20;1.30;;;;;;;1.47;100.00;93684.03;2121736;27;20027;-76
2021/10/01 01:48:24;;;;;;;1.75;1.30;;;;;;;1.47;100.00;93678.00;2121870;27;20071;-77
2021/10/01 01:49:27;;;;;;;2.15;1.40;;;;;;;1.45;100.00;93672.31;2123365;27;20046;-77
2021/10/01 01:50:28;;;;;;;1.58;0.98;;;;;;;1.45;100.00;93675.72;2111785;28;20012;-77
2021/10/01 01:51:30;;;;;;;3.83;1.27;;;;;;;1.49;100.00;93668.66;2110614;28;20596;-78
2021/10/01 01:52:33;;;;;;;1.35;1.25;;;;;;;1.47;100.00;93675.38;2114738;28;20110;-77
2021/10/01 01:53:35;;;;;;;2.60;1.05;;;;;;;1.38;100.00;93675.56;2110328;28;20015;-78
2021/10/01 01:54:38;;;;;;;3.10;1.20;;;;;;;1.44;100.00;93671.53;2110735;28;20024;-78
2021/10/01 01:55:40;;;;;;;1.73;1.50;;;;;;;1.42;100.00;93670.38;2119142;27;20776;-77
2021/10/01 01:56:41;;;;;;;1.75;1.15;;;;;;;1.40;100.00;93664.66;2115400;28;20062;-77
2021/10/01 01:57:47;;;;;;;2.80;1.55;;;;;;;1.37;100.00;93665.38;2115288;28;20015;-76
2021/10/01 01:58:49;;;;;;;1.23;1.00;;;;;;;1.26;100.00;93665.88;2115495;28;20099;-76
2021/10/01 01:59:51;;;;;;;3.85;1.20;;;;;;;1.27;100.00;93664.00;2121060;27;20475;-76
2021/10/01 02:00:53;;;;;;;1.17;1.08;;;;;;;1.38;100.00;93661.63;2121559;27;20019;-76
2021/10/01 02:01:56;;;;;;;3.95;1.50;;;;;;;1.40;100.00;93654.91;2121527;27;20106;-77
2021/10/01 02:02:57;;;;;;;3.20;1.10;;;;;;;1.58;100.00;93655.28;2107824;28;20028;-78
2021/10/01 02:04:00;;;;;;;4.10;1.40;;;;;;;1.42;100.00;93649.31;2122207;27;20042;-77
2021/10/01 02:05:02;;;;;;;3.53;1.05;;;;;;;1.45;100.00;93654.66;2123847;27;20034;-76
2021/10/01 02:07:41;;;;;;;;;;;;;;;1.41;100.00;93656.44;2149006;27;20117;-79
2021/10/01 02:08:43;;;;;;;3.95;1.10;;;;;;;1.39;100.00;93656.00;2133866;27;19945;-79
2021/10/01 02:09:46;;;;;;;3.17;1.10;;;;;;;1.37;100.00;93647.69;2130929;27;20023;-79
2021/10/01 02:10:47;;;;;;;2.78;1.30;;;;;;;1.30;100.00;93649.41;2139771;27;20393;-79
2021/10/01 02:11:49;;;;;;;3.47;1.33;;;;;;;1.24;100.00;93651.56;2130463;27;20026;-77
2021/10/01 02:12:55;;;;;;;1.30;1.17;;;;;;;1.25;100.00;93653.06;2130698;27;20031;-76
2021/10/01 02:13:58;;;;;;;2.30;1.10;;;;;;;1.30;100.00;93646.78;2130641;27;20106;-78
2021/10/01 02:15:00;;;;;;;1.27;1.10;;;;;;;1.31;100.00;93646.41;2133585;27;20081;-78
2021/10/01 02:16:02;;;;;;;4.82;1.27;;;;;;;1.31;100.00;93643.03;2140032;27;20079;-79
2021/10/01 02:17:04;;;;;;;1.92;1.40;;;;;;;1.21;100.00;93652.22;2140646;27;20014;-78
2021/10/01 02:18:08;;;;;;;4.82;1.15;;;;;;;1.22;100.00;93645.84;2148176;27;20030;-77
2021/10/01 02:19:11;;;;;;;3.05;1.02;;;;;;;1.28;100.00;93647.13;2148372;27;20026;-77
2021/10/01 02:20:15;;;;;;;2.17;1.00;;;;;;;1.30;100.00;93650.16;2130430;27;20051;-77
2021/10/01 02:21:18;;;;;;;1.75;1.00;;;;;;;1.26;100.00;93636.91;2122103;27;20050;-77
2021/10/01 02:22:21;;;;;;;1.35;1.20;;;;;;;1.26;100.00;93628.25;2122172;27;20028;-74
2021/10/01 02:23:22;;;;;;;1.10;1.00;;;;;;;1.32;100.00;93634.81;2130566;27;20075;-77
2021/10/01 02:24:28;;;;;;;1.20;1.08;;;;;;;1.34;100.00;93631.81;2142071;27;20147;-78
2021/10/01 02:27:06;;;;;;;1.67;0.90;;;;;;;1.29;100.00;93626.81;2136617;27;20437;-79
2021/10/01 02:28:15;;;;;;;1.70;0.90;;;;;;;1.38;100.00;93622.88;2115458;28;20115;-79
2021/10/01 02:29:29;;;;;;;2.28;1.08;;;;;;;1.32;100.00;93624.28;2125914;27;20019;-76
2021/10/01 02:30:32;;;;;;;1.27;0.90;;;;;;;1.38;100.00;93624.75;2135495;27;20041;-78
2021/10/01 02:31:44;;;;;;;1.55;0.93;;;;;;;1.35;100.00;93623.56;2129859;27;20021;-76
2021/10/01 02:32:50;;;;;;;5.15;1.48;;;;;;;1.24;100.00;93625.97;2130980;27;20050;-79
2021/10/01 02:33:52;;;;;;;0.93;0.93;;;;;;;1.15;100.00;93622.03;2125936;27;20019;-77
2021/10/01 02:34:54;;;;;;;1.52;0.98;;;;;;;1.27;100.00;93621.88;2126340;27;20023;-79
2021/10/01 02:35:55;;;;;;;2.70;0.98;;;;;;;1.20;100.00;93619.88;2131830;27;20019;-79
2021/10/01 02:36:56;;;;;;;1.10;1.00;;;;;;;1.20;100.00;93619.13;2137385;27;20060;-78
2021/10/01 02:37:57;;;;;;;1.45;1.10;;;;;;;1.15;100.00;93624.66;2140873;27;20029;-78
2021/10/01 02:38:58;;;;;;;2.10;1.20;;;;;;;1.04;100.00;93615.75;2139571;27;20358;-79
2021/10/01 02:40:00;;;;;;;1.10;1.00;;;;;;;1.06;100.00;93619.56;2146982;27;20116;-80
2021/10/01 02:41:03;;;;;;;1.00;0.90;;;;;;;1.03;100.00;93615.00;2148137;27;20029;-78
2021/10/01 02:42:05;;;;;;;1.80;1.00;;;;;;;1.08;100.00;93616.59;2139785;27;20030;-79
2021/10/01 02:43:06;;;;;;;1.25;0.80;;;;;;;1.13;100.00;93611.06;2130907;27;20114;-78
2021/10/01 02:44:07;;;;;;;1.30;1.20;;;;;;;1.30;100.00;93612.53;2138776;27;20513;-79
2021/10/01 02:45:09;;;;;;;1.25;1.00;;;;;;;1.21;100.00;93615.38;2130098;27;20025;-78
2021/10/01 02:46:10;;;;;;;1.10;0.88;;;;;;;1.23;100.00;93616.56;2138783;27;20022;-78
2021/10/01 02:47:13;;;;;;;1.98;1.00;;;;;;;1.33;100.00;93617.13;2137410;27;20031;-79
2021/10/01 02:48:14;;;;;;;1.10;0.80;;;;;;;1.45;100.00;93609.88;2131638;27;20027;-79
2021/10/01 02:49:14;;;;;;;1.38;1.00;;;;;;;1.37;100.00;93617.97;2142562;27;20014;-78
2021/10/01 02:50:18;;;;;;;1.00;0.90;;;;;;;1.37;100.00;93616.09;2139977;27;20110;-76
2021/10/01 02:51:23;;;;;;;1.73;0.90;;;;;;;1.24;100.00;93619.97;2125155;27;20379;-78
2021/10/01 02:52:42;;;;;;;1.55;1.02;;;;;;;1.28;100.00;93620.81;2135026;27;20415;-79
2021/10/01 02:53:55;;;;;;;1.40;0.70;;;;;;;1.19;100.00;93617.59;2142847;27;20790;-80
2021/10/01 02:55:05;;;;;;;0.77;0.73;;;;;;;1.14;100.00;93612.56;2119928;28;20019;-79
2021/10/01 02:56:12;;;;;;;1.85;0.65;;;;;;;1.13;100.00;93621.59;2123051;27;20094;-79
2021/10/01 02:57:26;;;;;;;2.58;0.93;;;;;;;1.12;100.00;93612.16;2115717;27;20028;-78
2021/10/01 02:58:33;;;;;;;4.50;1.35;;;;;;;1.09;100.00;93618.09;2139463;27;20018;-80
2021/10/01 02:59:39;;;;;;;2.30;1.10;;;;;;;1.08;100.00;93608.69;2139512;27;20116;-77
2021/10/01 03:00:40;;;;;;;1.52;1.05;;;;;;;1.22;100.00;93616.88;2134644;27;20018;-78
2021/10/01 03:01:43;;;;;;;1.25;1.15;;;;;;;1.29;100.00;93609.16;2130097;27;20526;-78
2021/10/01 03:02:45;;;;;;;1.63;1.00;;;;;;;1.25;100.00;93609.06;2134188;27;20466;-77
2021/10/01 03:03:49;;;;;;;1.80;1.35;;;;;;;1.28;100.00;93605.00;2135629;27;20097;-79
2021/10/01 03:04:54;;;;;;;2.17;1.08;;;;;;;1.25;100.00;93611.69;2134264;27;20558;-78
2021/10/01 03:05:58;;;;;;;1.98;1.27;;;;;;;1.21;100.00;93604.84;2132072;27;20383;-79
2021/10/01 03:07:03;;;;;;;1.35;0.95;;;;;;;1.28;100.00;93607.63;2130257;27;20419;-78
2021/10/01 03:08:05;;;;;;;2.35;0.90;;;;;;;1.27;100.00;93611.34;2121516;28;20073;-78
2021/10/01 03:09:07;;;;;;;2.17;1.00;;;;;;;1.34;100.00;93606.25;2121748;27;20027;-80
2021/10/01 03:10:09;;;;;;;3.58;1.10;;;;;;;1.27;100.00;93606.09;2122366;27;20059;-78
2021/10/01 03:11:13;;;;;;;1.52;1.23;;;;;;;1.29;100.00;93613.66;2138683;27;20021;-78
2021/10/01 03:12:17;;;;;;;1.40;1.10;;;;;;;1.25;100.00;93616.97;2130820;27;20546;-78
2021/10/01 03:13:21;;;;;;;2.47;1.25;;;;;;;1.26;100.00;93609.84;2136947;27;20026;-79
2021/10/01 03:14:23;;;;;;;1.60;0.90;;;;;;;1.25;100.00;93610.94;2123642;27;20023;-78
2021/10/01 03:15:24;;;;;;;1.17;1.00;;;;;;;1.29;100.00;93603.88;2121213;27;20387;-76
2021/10/01 03:16:26;;;;;;;1.23;0.90;;;;;;;1.29;100.00;93609.16;2118696;28;20411;-79
2021/10/01 03:17:27;;;;;;;2.47;1.00;;;;;;;1.23;100.00;93610.53;2104642;28;20013;-77
2021/10/01 03:18:29;;;;;;;1.83;1.00;;;;;;;1.32;100.00;93616.38;2120874;27;20571;-79
2021/10/01 03:19:30;;;;;;;1.40;1.10;;;;;;;1.38;100.00;93604.44;2133440;27;20079;-78
2021/10/01 03:20:31;;;;;;;1.20;0.90;;;;;;;1.41;100.00;93603.00;2129872;27;20026;-76
2021/10/01 03:21:33;;;;;;;2.25;0.90;;;;;;;1.43;100.00;93603.41;2119156;27;20023;-78
2021/10/01 03:22:38;;;;;;;0.80;0.80;;;;;;;1.33;100.00;93599.47;2120577;27;20032;-77
2021/10/01 03:23:42;;;;;;;1.90;1.20;;;;;;;1.34;100.00;93603.59;2129403;27;20057;-77
2021/10/01 03:24:44;;;;;;;1.50;1.10;;;;;;;1.28;100.00;93604.25;2132486;27;20047;-76
2021/10/01 03:25:46;;;;;;;1.75;1.15;;;;;;;1.22;100.00;93601.09;2124825;27;20106;-76
2021/10/01 03:26:48;;;;;;;1.42;1.10;;;;;;;1.25;100.00;93603.03;2121157;27;20030;-77
2021/10/01 03:27:49;;;;;;;2.17;1.05;;;;;;;1.26;100.00;93596.66;2109938;28;20032;-78
2021/10/01 03:28:50;;;;;;;1.10;1.00;;;;;;;1.24;100.00;93604.16;2107263;28;20024;-79
2021/10/01 03:29:51;;;;;;;3.70;1.20;;;;;;;1.11;100.00;93608.78;2121778;27;20406;-78
2021/10/01 03:30:52;;;;;;;1.42;1.08;;;;;;;1.18;100.00;93598.38;2117663;27;20026;-79
2021/10/01 03:31:53;;;;;;;2.60;1.20;;;;;;;1.23;100.00;93607.91;2113659;28;20030;-76
2021/10/01 03:32:54;;;;;;;2.90;1.33;;;;;;;1.21;100.00;93600.34;2117345;27;20099;-76
2021/10/01 03:33:56;;;;;;;2.58;1.15;;;;;;;1.22;100.00;93601.84;2129852;27;20030;-77
2021/10/01 03:35:01;;;;;;;1.58;0.90;;;;;;;1.26;100.00;93607.19;2126215;27;20089;-77
2021/10/01 03:36:04;;;;;;;0.93;0.85;;;;;;;1.20;100.00;93596.19;2124832;27;20428;-78
2021/10/01 03:37:05;;;;;;;1.58;1.20;;;;;;;1.25;100.00;93593.28;2124653;27;20046;-80
2021/10/01 03:38:08;;;;;;;3.30;1.20;;;;;;;1.39;100.00;93592.03;2133044;27;20027;-80
2021/10/01 03:39:10;;;;;;;1.13;0.93;;;;;;;1.44;100.00;93597.78;2116794;27;20490;-77
2021/10/01 03:40:13;;;;;;;3.00;1.00;;;;;;;1.46;100.00;93594.81;2132595;27;20022;-79
2021/10/01 03:41:15;;;;;;;2.83;1.00;;;;;;;1.30;100.00;93592.25;2116634;27;20060;-77
2021/10/01 03:42:16;;;;;;;2.10;1.00;;;;;;;1.26;100.00;93588.78;2124159;27;20019;-78
2021/10/01 03:43:18;;;;;;;1.42;0.90;;;;;;;1.27;100.00;93590.28;2122576;27;20019;-79
2021/10/01 03:44:19;;;;;;;1.25;1.15;;;;;;;1.22;100.00;93590.56;2121715;27;20487;-79
2021/10/01 03:45:20;;;;;;;1.20;1.10;;;;;;;1.19;100.00;93586.75;2123878;27;20109;-78
2021/10/01 03:46:21;;;;;;;1.38;1.10;;;;;;;1.23;100.00;93582.34;2124084;27;20494;-79
2021/10/01 03:47:22;;;;;;;3.70;1.20;;;;;;;1.19;100.00;93581.50;2130381;27;20018;-79
2021/10/01 03:48:24;;;;;;;0.90;0.90;;;;;;;1.19;100.00;93578.88;2126007;27;20473;-79
2021/10/01 03:49:25;;;;;;;1.55;0.95;;;;;;;1.23;100.00;93581.56;2113234;28;20030;-79
2021/10/01 03:50:26;;;;;;;1.05;0.90;;;;;;;1.19;100.00;93572.84;2110605;28;20024;-77
2021/10/01 03:51:27;;;;;;;1.25;1.00;;;;;;;1.20;100.00;93571.72;2106880;28;20028;-75
2021/10/01 03:52:28;;;;;;;1.58;1.20;;;;;;;1.11;100.00;93576.44;2106967;28;20024;-79
2021/10/01 03:53:29;;;;;;;1.60;0.95;;;;;;;1.19;100.00;93580.75;2118558;27;20109;-80
2021/10/01 03:54:30;;;;;;;5.38;1.23;;;;;;;1.16;100.00;93582.19;2123826;27;20491;-77
2021/10/01 03:55:32;;;;;;;3.05;0.90;;;;;;;1.12;100.00;93570.03;2112192;28;20020;-78
2021/10/01 03:56:33;;;;;;;1.83;1.00;;;;;;;1.07;100.00;93572.94;2118987;27;20023;-79
2021/10/01 03:57:35;;;;;;;1.35;1.08;;;;;;;1.06;100.00;93576.69;2129106;27;20030;-75
2021/10/01 03:58:36;;;;;;;1.77;1.10;;;;;;;1.04;100.00;93577.03;2128179;27;20494;-78
2021/10/01 03:59:37;;;;;;;4.88;1.63;;;;;;;1.02;100.00;93571.34;2128919;27;20026;-77
2021/10/01 04:00:38;;;;;;;1.67;0.70;;;;;;;1.04;100.00;93576.25;2128783;27;20027;-79
2021/10/01 04:01:39;;;;;;;2.67;0.95;;;;;;;1.09;100.00;93568.09;2119801;27;20053;-79
2021/10/01 04:02:40;;;;;;;1.17;1.05;;;;;;;0.98;100.00;93571.28;2119354;27;20034;-78
2021/10/01 04:03:42;;;;;;;1.75;0.95;;;;;;;1.05;100.00;93575.91;2118709;27;20015;-78
2021/10/01 04:04:43;;;;;;;1.30;1.00;;;;;;;1.10;100.00;93577.50;2116006;28;20068;-77
2021/10/01 04:05:44;;;;;;;0.90;0.90;;;;;;;1.13;100.00;93576.84;2108398;27;20020;-79
2021/10/01 04:06:44;;;;;;;2.17;1.13;;;;;;;1.28;100.00;93573.41;2110857;28;20069;-77
2021/10/01 04:07:46;;;;;;;1.48;0.85;;;;;;;1.22;100.00;93569.50;2118652;27;20431;-80
2021/10/01 04:08:47;;;;;;;1.85;0.90;;;;;;;1.23;100.00;93571.03;2120916;27;20030;-80
2021/10/01 04:09:48;;;;;;;1.00;0.90;;;;;;;1.23;100.00;93573.69;2123997;27;20458;-77
2021/10/01 04:10:49;;;;;;;1.48;1.00;;;;;;;1.26;100.00;93567.69;2115336;28;20024;-79
2021/10/01 04:11:53;;;;;;;2.97;1.00;;;;;;;1.30;100.00;93565.16;2109465;28;20023;-79
2021/10/01 04:12:54;;;;;;;1.42;1.10;;;;;;;1.30;100.00;93568.53;2124338;27;20015;-79
2021/10/01 04:13:55;;;;;;;3.47;0.90;;;;;;;1.18;100.00;93566.03;2131192;27;20071;-78
2021/10/01 04:14:56;;;;;;;2.00;0.90;;;;;;;1.30;100.00;93567.78;2121306;27;20023;-79
2021/10/01 04:15:57;;;;;;;3.83;1.08;;;;;;;1.34;100.00;93564.09;2106831;28;20484;-77
2021/10/01 04:16:58;;;;;;;2.28;1.15;;;;;;;1.26;100.00;93565.06;2122278;27;20490;-79
2021/10/01 04:17:59;;;;;;;1.05;0.95;;;;;;;1.17;100.00;93559.25;2123767;27;20027;-78
2021/10/01 04:19:00;;;;;;;3.22;1.20;;;;;;;1.20;100.00;93561.94;2123931;27;20027;-79
2021/10/01 04:20:01;;;;;;;1.08;0.80;;;;;;;1.15;100.00;93564.88;2125450;27;20110;-79
2021/10/01 04:21:02;;;;;;;1.17;0.90;;;;;;;1.10;100.00;93559.88;2116293;27;20553;-78
2021/10/01 04:22:03;;;;;;;1.17;0.95;;;;;;;1.10;100.00;93567.78;2122974;27;20042;-78
2021/10/01 04:23:04;;;;;;;2.00;1.30;;;;;;;1.11;100.00;93560.63;2119920;27;20679;-78
2021/10/01 04:24:05;;;;;;;2.28;1.00;;;;;;;1.11;100.00;93560.63;2106912;28;20051;-76
2021/10/01 04:25:06;;;;;;;1.63;0.90;;;;;;;1.09;100.00;93554.94;2115309;28;20516;-79
2021/10/01 04:26:08;;;;;;;0.85;0.80;;;;;;;1.08;100.00;93556.81;2115379;28;20035;-79
2021/10/01 04:27:09;;;;;;;2.17;1.05;;;;;;;1.05;100.00;93556.72;2106915;27;20031;-78
2021/10/01 04:28:10;;;;;;;1.58;1.10;;;;;;;1.07;100.00;93559.78;2115228;28;20659;-78
2021/10/01 04:29:11;;;;;;;0.85;0.85;;;;;;;1.11;100.00;93558.00;2114822;28;20023;-79
2021/10/01 04:30:12;;;;;;;2.67;0.98;;;;;;;1.07;100.00;93557.91;2115182;27;20055;-78
2021/10/01 04:31:13;;;;;;;2.22;1.00;;;;;;;1.08;100.00;93556.03;2122594;27;20077;-79
2021/10/01 04:32:14;;;;;;;1.80;1.48;;;;;;;1.04;100.00;93563.88;2107594;28;20028;-79
2021/10/01 04:33:21;;;;;;;1.48;1.13;;;;;;;1.18;100.00;93558.88;2123761;27;20072;-78
2021/10/01 04:34:22;;;;;;;1.20;1.10;;;;;;;1.10;100.00;93556.44;2130814;27;20370;-77
2021/10/01 04:35:24;;;;;;;1.15;0.88;;;;;;;1.09;100.00;93560.19;2117242;27;20028;-79
2021/10/01 04:36:26;;;;;;;1.75;0.75;;;;;;;1.04;100.00;93555.22;2124042;27;20015;-78
2021/10/01 04:37:27;;;;;;;1.30;0.95;;;;;;;1.07;100.00;93557.16;2125060;27;20023;-78
2021/10/01 04:38:29;;;;;;;1.40;1.15;;;;;;;1.10;100.00;93559.88;2126258;27;20034;-79
2021/10/01 04:39:30;;;;;;;1.65;1.00;;;;;;;1.24;100.00;93562.03;2115140;28;20114;-80
2021/10/01 04:40:32;;;;;;;1.73;0.95;;;;;;;1.16;100.00;93555.09;2123938;27;20395;-77
2021/10/01 04:41:33;;;;;;;0.82;0.77;;;;;;;1.17;100.00;93561.88;2129332;27;20025;-79
2021/10/01 04:42:34;;;;;;;1.42;0.95;;;;;;;1.20;100.00;93554.06;2118582;27;20019;-78
2021/10/01 04:43:36;;;;;;;4.18;1.23;;;;;;;1.20;100.00;93553.28;2119731;27;20020;-79
2021/10/01 04:44:37;;;;;;;4.22;1.05;;;;;;;1.25;100.00;93558.28;2112695;28;20548;-78
2021/10/01 04:45:38;;;;;;;1.30;1.00;;;;;;;1.17;100.00;93554.72;2114908;28;20019;-76
2021/10/01 04:46:39;;;;;;;1.08;1.05;;;;;;;1.10;100.00;93556.44;2115040;28;20102;-78
2021/10/01 04:47:40;;;;;;;1.95;1.48;;;;;;;1.09;100.00;93560.97;2122748;27;20018;-78
2021/10/01 04:48:41;;;;;;;2.08;1.17;;;;;;;1.12;100.00;93554.25;2122642;27;20031;-78
2021/10/01 04:49:42;;;;;;;1.05;0.90;;;;;;;1.11;100.00;93550.09;2115295;27;20043;-79
2021/10/01 04:50:43;;;;;;;1.38;1.00;;;;;;;1.04;100.00;93550.69;2115166;28;20036;-78
2021/10/01 04:51:44;;;;;;;1.15;0.88;;;;;;;1.07;100.00;93554.53;2124411;27;20046;-78
2021/10/01 04:52:45;;;;;;;1.10;1.00;;;;;;;1.04;100.00;93553.34;2123087;27;20365;-75
2021/10/01 04:53:46;;;;;;;1.50;1.00;;;;;;;1.07;100.00;93549.25;2117850;27;20031;-79
2021/10/01 04:54:47;;;;;;;1.48;0.90;;;;;;;1.09;100.00;93552.31;2097722;28;20461;-79
2021/10/01 04:55:48;;;;;;;1.20;1.13;;;;;;;0.99;100.00;93545.72;2111668;28;20020;-77
2021/10/01 04:56:48;;;;;;;1.58;0.98;;;;;;;0.92;100.00;93548.19;2117401;27;20109;-79
2021/10/01 04:57:50;;;;;;;3.72;1.00;;;;;;;0.85;100.00;93551.44;2100897;28;20491;-77
2021/10/01 04:58:51;;;;;;;2.15;0.90;;;;;;;0.91;100.00;93551.94;2100660;27;20066;-77
2021/10/01 04:59:52;;;;;;;1.10;1.00;;;;;;;0.85;100.00;93546.19;2120376;27;20022;-79
2021/10/01 05:00:53;;;;;;;0.90;0.90;;;;;;;0.88;100.00;93552.59;2124573;27;20019;-79
2021/10/01 05:01:54;;;;;;;2.45;1.00;;;;;;;0.86;100.00;93552.97;2127610;27;20045;-79
2021/10/01 05:02:55;;;;;;;5.18;0.93;;;;;;;0.97;100.00;93556.59;2112192;28;20023;-78